Time;durP1;ratioP1;P1;durP2;ratioP2;P2;SDS_P1;SDS_P2;PMS_P1;PMS_P2;Temp;Humidity;BMP_temperature;BMP_pressure;BME280_temperature;BME280_humidity;BME280_pressure;Samples;Min_cycle;Max_cycle;Signal;HPM_P1;HPM_P2
2023/01/07 00:00:46;;;;;;;1.50;0.90;;;10.30;99.90;;;;;;7298715;32;20119;-59
2023/01/07 00:04:49;;;;;;;3.42;1.02;;;10.20;99.90;;;;;;7298438;32;20711;-59
2023/01/07 00:08:53;;;;;;;1.62;0.68;;;10.20;99.90;;;;;;7298437;32;20754;-59
2023/01/07 00:12:54;;;;;;;1.05;0.57;;;10.20;99.90;;;;;;7298531;32;20100;-59
2023/01/07 00:16:56;;;;;;;2.05;0.50;;;10.20;99.90;;;;;;7298278;32;20104;-59
2023/01/07 00:21:00;;;;;;;2.30;0.70;;;10.20;99.90;;;;;;7297160;32;20100;-60
2023/01/07 00:25:02;;;;;;;0.82;0.75;;;10.20;99.90;;;;;;7297460;32;20104;-59
2023/01/07 00:29:05;;;;;;;0.95;0.52;;;10.30;99.90;;;;;;7297478;32;20150;-59
2023/01/07 00:33:08;;;;;;;1.37;0.80;;;10.20;99.90;;;;;;7302559;32;20183;-59
2023/01/07 00:41:30;;;;;;;0.75;0.50;;;10.30;99.90;;;;;;7292871;32;20183;-59
2023/01/07 00:45:34;;;;;;;0.70;0.60;;;10.30;99.90;;;;;;7295536;32;20400;-59
2023/01/07 00:49:36;;;;;;;1.17;0.43;;;10.40;99.90;;;;;;7295757;32;20104;-59
2023/01/07 00:53:38;;;;;;;0.80;0.65;;;10.30;99.90;;;;;;7297289;32;20115;-60
2023/01/07 00:57:40;;;;;;;1.33;0.60;;;10.30;99.90;;;;;;7298254;32;20136;-59
2023/01/07 01:01:42;;;;;;;0.73;0.52;;;10.40;99.90;;;;;;7298290;32;20133;-60
2023/01/07 01:05:44;;;;;;;1.33;0.70;;;10.30;99.90;;;;;;7297808;32;20104;-59
2023/01/07 01:09:45;;;;;;;1.20;0.80;;;10.30;99.90;;;;;;7295324;32;20467;-59
2023/01/07 01:13:47;;;;;;;1.70;0.62;;;10.30;99.90;;;;;;7297017;32;20100;-60
2023/01/07 01:17:51;;;;;;;1.05;0.60;;;10.30;99.90;;;;;;7294378;32;20253;-60
2023/01/07 01:21:52;;;;;;;1.12;0.80;;;10.20;99.90;;;;;;7296269;32;20131;-59
2023/01/07 01:26:05;;;;;;;1.80;0.60;;;10.30;99.90;;;;;;7297026;32;20153;-59
2023/01/07 01:30:07;;;;;;;1.55;0.80;;;10.20;99.90;;;;;;7296408;32;20128;-60
2023/01/07 01:34:09;;;;;;;1.25;0.52;;;10.20;99.90;;;;;;7297214;32;20108;-59
2023/01/07 01:38:10;;;;;;;1.30;0.70;;;10.30;99.90;;;;;;7296169;32;20228;-59
2023/01/07 01:42:20;;;;;;;0.60;0.37;;;10.30;99.90;;;;;;7291845;32;20122;-59
2023/01/07 01:46:38;;;;;;;1.08;0.43;;;10.40;99.90;;;;;;7292447;32;20890;-59
2023/01/07 01:50:45;;;;;;;0.50;0.40;;;10.30;99.90;;;;;;7295064;32;20595;-59
2023/01/07 01:54:53;;;;;;;0.90;0.60;;;10.20;99.90;;;;;;7296237;32;20138;-59
2023/01/07 01:59:00;;;;;;;0.60;0.50;;;10.20;99.90;;;;;;7291912;32;20214;-60
2023/01/07 02:03:05;;;;;;;2.08;0.60;;;10.20;99.90;;;;;;7295071;32;20150;-59
2023/01/07 02:07:16;;;;;;;2.22;0.55;;;10.30;99.90;;;;;;7294688;32;20545;-59
2023/01/07 02:11:38;;;;;;;0.85;0.57;;;10.30;99.90;;;;;;7296274;32;20522;-59
2023/01/07 02:16:01;;;;;;;0.50;0.50;;;10.20;99.90;;;;;;7295959;32;20454;-59
2023/01/07 02:20:20;;;;;;;1.37;0.65;;;10.20;99.90;;;;;;7292671;32;20104;-59
2023/01/07 02:24:57;;;;;;;1.58;0.70;;;10.20;99.90;;;;;;7296178;32;20616;-59
2023/01/07 02:29:29;;;;;;;1.43;0.73;;;10.20;99.90;;;;;;7298903;32;20459;-59
2023/01/07 02:33:57;;;;;;;2.95;0.60;;;10.20;99.90;;;;;;7298491;32;20446;-59
2023/01/07 02:38:14;;;;;;;0.70;0.55;;;10.40;99.90;;;;;;7275281;32;20108;-59
2023/01/07 02:42:25;;;;;;;2.33;0.60;;;10.40;99.90;;;;;;7296266;32;20187;-60
2023/01/07 02:46:49;;;;;;;1.30;0.50;;;10.30;99.90;;;;;;7299571;32;20124;-59
2023/01/07 02:50:50;;;;;;;1.65;0.50;;;10.30;99.90;;;;;;7296293;32;20213;-60
2023/01/07 02:55:17;;;;;;;1.67;0.80;;;10.20;99.90;;;;;;7292547;32;20288;-59
2023/01/07 02:59:22;;;;;;;0.88;0.60;;;10.20;99.90;;;;;;7283800;32;20218;-59
2023/01/07 03:03:46;;;;;;;0.95;0.55;;;10.20;99.90;;;;;;7299889;32;20111;-60
2023/01/07 03:08:03;;;;;;;0.95;0.50;;;10.20;99.90;;;;;;7297641;32;20501;-59
2023/01/07 03:12:18;;;;;;;1.37;0.70;;;10.20;99.90;;;;;;7300840;32;20231;-59
2023/01/07 03:16:38;;;;;;;2.10;0.82;;;10.20;99.90;;;;;;7302022;32;20108;-59
2023/01/07 03:20:43;;;;;;;1.48;0.80;;;10.10;99.90;;;;;;7299380;32;20492;-60
2023/01/07 03:24:47;;;;;;;1.80;1.00;;;10.20;99.90;;;;;;7299224;32;20132;-59
2023/01/07 03:28:51;;;;;;;1.67;1.00;;;10.10;99.90;;;;;;7298929;32;20484;-60
2023/01/07 03:33:12;;;;;;;1.45;1.00;;;10.10;99.90;;;;;;7296739;32;20135;-59
2023/01/07 03:37:19;;;;;;;1.05;0.85;;;10.20;99.90;;;;;;7299612;32;20107;-59
2023/01/07 03:45:41;;;;;;;1.90;0.95;;;10.00;99.90;;;;;;7294359;32;20017;-60
2023/01/07 03:49:43;;;;;;;1.37;0.90;;;9.90;99.90;;;;;;7293995;32;20118;-59
2023/01/07 03:53:45;;;;;;;1.50;0.90;;;9.80;99.90;;;;;;7298663;32;20100;-59
2023/01/07 03:57:47;;;;;;;1.77;1.00;;;9.70;99.90;;;;;;7292541;32;20218;-59
2023/01/07 04:01:48;;;;;;;1.37;0.70;;;9.60;99.90;;;;;;7292464;32;20908;-60
2023/01/07 04:05:50;;;;;;;2.08;0.90;;;9.50;99.90;;;;;;7293655;32;20203;-59
2023/01/07 04:09:52;;;;;;;1.40;0.90;;;9.40;99.90;;;;;;7289187;32;20118;-59
2023/01/07 04:13:55;;;;;;;3.50;0.98;;;9.40;99.90;;;;;;7296749;32;20104;-59
2023/01/07 04:17:57;;;;;;;0.90;0.62;;;9.40;99.90;;;;;;7291668;32;20099;-59
2023/01/07 04:21:59;;;;;;;1.20;0.82;;;9.30;99.90;;;;;;7292628;32;20230;-59
2023/01/07 04:26:01;;;;;;;1.60;0.90;;;9.30;99.90;;;;;;7294014;32;20154;-59
2023/01/07 04:30:03;;;;;;;2.17;1.20;;;9.20;99.90;;;;;;7297465;32;20197;-59
2023/01/07 04:34:05;;;;;;;1.75;1.08;;;9.20;99.90;;;;;;7297125;32;20209;-60
2023/01/07 04:38:07;;;;;;;4.20;1.15;;;9.30;99.90;;;;;;7296913;32;20185;-59
2023/01/07 04:42:09;;;;;;;0.95;0.80;;;9.30;99.90;;;;;;7296672;32;20249;-57
2023/01/07 04:46:10;;;;;;;1.80;1.23;;;9.40;99.90;;;;;;7294800;32;20682;-57
2023/01/07 04:50:13;;;;;;;2.45;0.88;;;9.50;99.90;;;;;;7292695;32;20195;-58
2023/01/07 04:54:15;;;;;;;0.95;0.80;;;9.50;99.90;;;;;;7295166;32;20139;-59
2023/01/07 04:58:16;;;;;;;2.67;1.00;;;9.30;99.90;;;;;;7296417;32;20108;-58
2023/01/07 05:02:18;;;;;;;2.87;1.25;;;9.40;99.90;;;;;;7291444;32;20608;-60
2023/01/07 05:06:20;;;;;;;1.55;1.00;;;9.30;99.90;;;;;;7294371;32;20130;-59
2023/01/07 05:10:21;;;;;;;1.75;1.05;;;9.30;99.90;;;;;;7292952;32;20352;-59
2023/01/07 05:14:23;;;;;;;2.90;1.23;;;9.20;99.90;;;;;;7294812;32;20901;-62
2023/01/07 05:18:25;;;;;;;2.05;1.27;;;9.20;99.90;;;;;;7295286;32;20129;-59
2023/01/07 05:22:26;;;;;;;2.10;1.33;;;9.20;99.90;;;;;;7294077;32;20254;-58
2023/01/07 05:26:28;;;;;;;2.33;1.25;;;9.20;99.90;;;;;;7296486;32;20219;-59
2023/01/07 05:30:31;;;;;;;4.20;1.40;;;9.20;99.90;;;;;;7289457;32;20352;-58
2023/01/07 05:34:32;;;;;;;2.47;1.20;;;9.10;99.90;;;;;;7297323;32;20127;-59
2023/01/07 05:38:34;;;;;;;1.80;1.60;;;9.20;99.90;;;;;;7296985;32;20227;-58
2023/01/07 05:42:36;;;;;;;2.17;1.50;;;9.20;99.90;;;;;;7296778;32;20288;-59
2023/01/07 05:46:37;;;;;;;2.03;1.27;;;9.10;99.90;;;;;;7294372;32;20119;-59
2023/01/07 05:50:40;;;;;;;4.00;1.48;;;9.10;99.90;;;;;;7291653;32;20122;-59
2023/01/07 05:54:41;;;;;;;4.87;1.30;;;9.20;99.90;;;;;;7295964;32;20122;-59
2023/01/07 05:58:43;;;;;;;2.75;1.20;;;9.30;99.90;;;;;;7295126;32;20427;-59
2023/01/07 06:02:45;;;;;;;1.60;1.30;;;9.30;99.90;;;;;;7294871;32;20456;-59
2023/01/07 06:06:46;;;;;;;4.37;1.50;;;9.30;99.90;;;;;;7293001;32;20577;-59
2023/01/07 06:10:48;;;;;;;2.75;1.30;;;9.30;99.90;;;;;;7297006;32;20100;-59
2023/01/07 06:14:49;;;;;;;3.70;1.45;;;9.30;99.90;;;;;;7294027;32;20145;-59
2023/01/07 06:18:51;;;;;;;1.73;1.10;;;9.30;99.90;;;;;;7295060;32;20183;-59
2023/01/07 06:22:53;;;;;;;4.78;1.67;;;9.30;99.90;;;;;;7296081;32;20364;-59
2023/01/07 06:26:55;;;;;;;5.15;1.60;;;9.30;99.90;;;;;;7294662;32;20223;-59
2023/01/07 06:30:56;;;;;;;5.70;1.85;;;9.20;99.90;;;;;;7294796;32;20580;-59
2023/01/07 06:34:58;;;;;;;2.00;1.20;;;9.30;99.90;;;;;;7295084;32;20363;-59
2023/01/07 06:39:00;;;;;;;1.70;1.20;;;9.30;99.90;;;;;;7296283;32;20438;-59
2023/01/07 06:43:01;;;;;;;3.20;1.50;;;9.30;99.90;;;;;;7296114;32;20190;-59
2023/01/07 06:47:03;;;;;;;1.90;1.20;;;9.30;99.90;;;;;;7293665;32;20747;-59
2023/01/07 06:51:05;;;;;;;3.20;1.50;;;9.40;99.90;;;;;;7295254;32;20162;-60
2023/01/07 06:55:07;;;;;;;2.55;1.52;;;9.40;99.90;;;;;;7294914;32;20230;-59
2023/01/07 06:59:09;;;;;;;3.42;1.67;;;9.50;99.90;;;;;;7294619;32;20221;-60
2023/01/07 07:03:11;;;;;;;3.20;1.25;;;9.60;99.90;;;;;;7295360;32;21026;-62
2023/01/07 07:07:14;;;;;;;3.35;1.40;;;9.50;99.90;;;;;;7297876;32;20195;-59
2023/01/07 07:11:16;;;;;;;2.62;1.48;;;9.60;99.90;;;;;;7291516;32;20127;-60
2023/01/07 07:15:17;;;;;;;5.25;1.40;;;9.60;99.90;;;;;;7297205;32;20139;-59
2023/01/07 07:19:19;;;;;;;1.75;1.37;;;9.60;99.90;;;;;;7296178;32;20100;-60
2023/01/07 07:23:21;;;;;;;2.30;1.17;;;9.60;99.90;;;;;;7295313;32;20107;-59
2023/01/07 07:27:22;;;;;;;2.85;1.70;;;9.70;99.90;;;;;;7292407;32;20104;-59
2023/01/07 07:31:24;;;;;;;2.70;1.45;;;9.70;99.90;;;;;;7297768;32;20124;-59
2023/01/07 07:35:26;;;;;;;3.00;1.23;;;9.80;99.90;;;;;;7297349;32;20099;-59
2023/01/07 07:39:27;;;;;;;5.37;1.40;;;9.70;99.90;;;;;;7298033;32;20126;-62
2023/01/07 07:43:29;;;;;;;2.45;1.20;;;9.70;99.90;;;;;;7299090;32;20128;-60
2023/01/07 07:47:31;;;;;;;4.15;1.25;;;9.70;99.90;;;;;;7298060;32;20496;-60
2023/01/07 07:51:33;;;;;;;3.58;1.10;;;9.80;99.90;;;;;;7300575;32;20171;-60
2023/01/07 07:55:39;;;;;;;2.03;1.10;;;9.90;99.90;;;;;;7297689;32;20418;-60
2023/01/07 07:59:40;;;;;;;1.77;0.90;;;9.70;99.90;;;;;;7298611;32;20104;-59
2023/01/07 08:03:42;;;;;;;1.65;1.20;;;9.80;99.90;;;;;;7298212;32;20524;-59
2023/01/07 08:07:44;;;;;;;2.45;0.90;;;9.80;99.90;;;;;;7295988;32;20563;-60
2023/01/07 08:11:45;;;;;;;2.25;0.98;;;9.90;99.90;;;;;;7295670;32;20119;-60
2023/01/07 08:15:47;;;;;;;6.55;1.10;;;9.90;99.90;;;;;;7290786;32;20124;-60
2023/01/07 08:19:49;;;;;;;1.35;0.68;;;9.90;99.90;;;;;;7296737;32;20180;-59
2023/01/07 08:23:50;;;;;;;1.23;0.68;;;10.00;99.90;;;;;;7292720;32;20096;-61
2023/01/07 08:27:54;;;;;;;0.77;0.60;;;10.10;99.90;;;;;;7289941;32;20095;-61
2023/01/07 08:31:56;;;;;;;0.95;0.50;;;10.20;99.90;;;;;;7292400;32;20100;-61
2023/01/07 08:35:57;;;;;;;3.17;0.80;;;10.20;99.90;;;;;;7294625;32;20203;-61
2023/01/07 08:39:59;;;;;;;1.70;0.60;;;10.20;99.90;;;;;;7296075;32;20166;-60
2023/01/07 08:44:01;;;;;;;1.65;0.70;;;10.20;99.90;;;;;;7291233;32;20130;-60
2023/01/07 08:48:03;;;;;;;1.70;0.70;;;10.20;99.90;;;;;;7296461;32;20314;-61
2023/01/07 08:52:05;;;;;;;1.80;0.80;;;10.20;99.90;;;;;;7294513;32;20631;-61
2023/01/07 08:56:07;;;;;;;2.83;0.80;;;10.10;99.90;;;;;;7296073;32;20178;-60
2023/01/07 09:00:10;;;;;;;1.33;0.60;;;10.20;99.90;;;;;;7294821;32;20092;-61
2023/01/07 09:04:11;;;;;;;3.60;0.90;;;10.10;99.90;;;;;;7296563;32;20711;-63
2023/01/07 09:08:13;;;;;;;1.92;0.88;;;10.10;99.90;;;;;;7297354;32;20220;-60
2023/01/07 09:12:15;;;;;;;1.95;0.98;;;10.20;99.90;;;;;;7297848;32;20696;-61
2023/01/07 09:16:16;;;;;;;1.25;0.70;;;10.20;99.90;;;;;;7296576;32;20612;-57
2023/01/07 09:20:19;;;;;;;2.12;0.60;;;10.20;99.90;;;;;;7276377;32;20198;-56
2023/01/07 09:24:20;;;;;;;2.72;0.70;;;10.30;99.90;;;;;;7292905;32;20104;-61
2023/01/07 09:28:22;;;;;;;3.03;0.62;;;10.40;99.90;;;;;;7295142;32;20474;-62
2023/01/07 09:32:27;;;;;;;0.75;0.60;;;10.30;99.90;;;;;;7278881;32;20107;-62
2023/01/07 09:36:29;;;;;;;1.85;0.80;;;10.20;99.90;;;;;;7296680;32;20542;-61
2023/01/07 09:40:40;;;;;;;1.62;0.70;;;10.30;99.90;;;;;;7297809;32;20229;-63
2023/01/07 09:45:00;;;;;;;1.23;0.77;;;10.20;99.90;;;;;;7295253;32;20096;-61
2023/01/07 09:49:03;;;;;;;1.67;0.88;;;10.20;99.90;;;;;;7293283;32;20552;-62
2023/01/07 09:53:12;;;;;;;2.20;0.90;;;10.40;99.90;;;;;;7300377;32;20153;-59
2023/01/07 09:57:16;;;;;;;1.65;0.80;;;10.50;99.90;;;;;;7295018;32;20191;-60
2023/01/07 10:01:36;;;;;;;1.73;0.75;;;10.60;99.90;;;;;;7276758;32;20104;-62
2023/01/07 10:05:43;;;;;;;4.20;0.90;;;10.70;99.90;;;;;;7279174;32;20099;-60
2023/01/07 10:09:58;;;;;;;0.93;0.70;;;10.60;99.90;;;;;;7289802;32;20158;-61
2023/01/07 10:13:59;;;;;;;1.50;1.00;;;10.60;99.90;;;;;;7296357;32;20514;-61
2023/01/07 10:18:20;;;;;;;3.22;1.00;;;10.70;99.90;;;;;;7288006;32;20185;-60
2023/01/07 10:22:31;;;;;;;1.55;0.80;;;10.70;99.90;;;;;;7295768;32;20134;-61
2023/01/07 10:26:38;;;;;;;1.52;0.90;;;10.70;99.90;;;;;;7294502;32;20199;-61
2023/01/07 10:30:43;;;;;;;2.22;1.00;;;10.80;99.90;;;;;;7290928;32;20223;-61
2023/01/07 10:34:52;;;;;;;1.87;1.02;;;10.80;99.90;;;;;;7291453;32;20515;-62
2023/01/07 10:39:24;;;;;;;1.75;1.10;;;10.80;99.90;;;;;;7283726;32;20130;-61
2023/01/07 10:43:55;;;;;;;3.28;1.00;;;10.90;99.90;;;;;;7290058;32;20213;-60
2023/01/07 10:48:17;;;;;;;2.70;1.20;;;11.00;99.90;;;;;;7291898;32;20096;-61
2023/01/07 10:52:38;;;;;;;3.55;1.70;;;11.10;99.90;;;;;;7276538;32;20096;-61
2023/01/07 10:56:45;;;;;;;2.37;1.42;;;11.10;99.90;;;;;;7294597;32;20774;-61
2023/01/07 11:00:47;;;;;;;2.30;1.60;;;11.30;99.90;;;;;;7298493;32;20125;-61
2023/01/07 11:04:49;;;;;;;2.50;1.55;;;11.20;99.90;;;;;;7292463;32;20329;-61
2023/01/07 11:08:52;;;;;;;3.62;1.92;;;11.20;99.90;;;;;;7288416;32;20209;-61
2023/01/07 11:13:12;;;;;;;3.65;1.70;;;11.10;99.90;;;;;;7292992;32;20207;-61
2023/01/07 11:17:30;;;;;;;3.37;1.90;;;11.20;99.90;;;;;;7296438;32;20096;-61
2023/01/07 11:21:44;;;;;;;2.80;1.80;;;11.30;99.90;;;;;;7287508;32;20491;-61
2023/01/07 11:25:46;;;;;;;2.35;2.05;;;11.40;99.90;;;;;;7293804;32;20245;-61
2023/01/07 11:30:01;;;;;;;3.25;1.90;;;11.40;99.90;;;;;;7290432;32;20104;-61
2023/01/07 11:34:03;;;;;;;2.45;1.87;;;11.40;99.90;;;;;;7296233;32;20236;-62
2023/01/07 11:38:28;;;;;;;3.00;1.92;;;11.30;99.90;;;;;;7279943;32;20190;-61
2023/01/07 11:42:39;;;;;;;2.97;1.80;;;11.30;99.90;;;;;;7298671;32;20130;-61
2023/01/07 11:46:43;;;;;;;2.60;1.80;;;11.40;99.90;;;;;;7298569;32;20474;-62
2023/01/07 11:51:07;;;;;;;3.95;1.75;;;11.40;99.90;;;;;;7291028;32;20096;-64
2023/01/07 11:55:20;;;;;;;2.17;1.60;;;11.60;99.90;;;;;;7295945;32;20449;-65
2023/01/07 11:59:27;;;;;;;2.12;1.60;;;11.60;99.90;;;;;;7294049;32;20540;-65
2023/01/07 12:03:28;;;;;;;2.50;1.75;;;11.50;99.90;;;;;;7297002;32;20103;-64
2023/01/07 12:07:30;;;;;;;2.33;1.55;;;11.60;99.90;;;;;;7291731;32;20100;-62
2023/01/07 12:11:35;;;;;;;2.67;1.37;;;11.60;99.90;;;;;;7294374;32;20550;-63
2023/01/07 12:15:57;;;;;;;2.00;1.30;;;11.50;99.90;;;;;;7292107;32;20164;-62
2023/01/07 12:20:33;;;;;;;2.00;1.20;;;11.50;99.90;;;;;;7290903;32;20123;-64
2023/01/07 12:24:52;;;;;;;1.90;1.35;;;11.50;99.90;;;;;;7292228;32;20122;-63
2023/01/07 12:29:21;;;;;;;1.80;1.20;;;11.40;99.90;;;;;;7289737;32;20217;-64
2023/01/07 12:33:54;;;;;;;1.50;1.00;;;11.40;99.90;;;;;;7283283;32;20191;-63
2023/01/07 12:38:02;;;;;;;1.55;1.10;;;11.50;99.90;;;;;;7277260;32;20129;-63
2023/01/07 12:42:16;;;;;;;2.15;1.00;;;11.40;99.90;;;;;;7292210;32;20715;-63
2023/01/07 12:46:18;;;;;;;2.03;1.08;;;11.40;99.90;;;;;;7280264;32;20416;-64
2023/01/07 12:50:32;;;;;;;5.70;1.20;;;11.30;99.90;;;;;;7292734;32;20108;-63
2023/01/07 12:54:43;;;;;;;2.00;1.20;;;11.30;99.90;;;;;;7294977;32;20210;-63
2023/01/07 12:58:54;;;;;;;1.85;1.15;;;11.40;99.90;;;;;;7288052;32;20792;-64
2023/01/07 13:03:08;;;;;;;1.98;1.10;;;11.20;99.90;;;;;;7280804;32;20117;-63
2023/01/07 13:07:18;;;;;;;1.52;1.05;;;11.20;99.90;;;;;;7294770;32;20104;-62
2023/01/07 13:16:01;;;;;;;1.77;1.10;;;11.30;99.90;;;;;;7289031;32;20144;-62
2023/01/07 13:20:10;;;;;;;1.70;1.15;;;11.30;99.90;;;;;;7294343;32;20462;-64
2023/01/07 13:24:35;;;;;;;1.80;1.15;;;11.20;99.90;;;;;;7285397;32;20207;-60
2023/01/07 13:29:19;;;;;;;1.80;1.00;;;11.40;99.90;;;;;;7286087;32;20256;-62
2023/01/07 13:33:52;;;;;;;2.00;1.00;;;11.50;99.90;;;;;;7290997;32;20229;-62
2023/01/07 13:38:12;;;;;;;1.52;1.10;;;11.50;99.90;;;;;;7287337;32;20521;-63
2023/01/07 13:42:52;;;;;;;2.30;1.05;;;11.40;99.90;;;;;;7292097;32;20201;-63
2023/01/07 13:46:54;;;;;;;1.62;1.10;;;11.50;99.90;;;;;;7279611;32;20109;-63
2023/01/07 13:50:59;;;;;;;1.95;0.90;;;11.60;99.90;;;;;;7297978;32;20101;-62
2023/01/07 13:55:31;;;;;;;1.45;1.08;;;11.60;99.90;;;;;;7296756;32;20123;-63
2023/01/07 13:59:47;;;;;;;4.15;1.00;;;11.50;99.90;;;;;;7295072;32;20146;-63
2023/01/07 14:03:53;;;;;;;1.23;1.00;;;11.40;99.90;;;;;;7294944;32;20187;-63
2023/01/07 14:08:00;;;;;;;1.70;0.90;;;11.40;99.90;;;;;;7296684;32;20139;-60
2023/01/07 14:12:08;;;;;;;;;;;11.40;99.90;;;;;;7295403;32;20558;-61
2023/01/07 14:16:25;;;;;;;0.82;0.80;;;11.60;99.90;;;;;;7290026;32;20615;-61
2023/01/07 14:20:46;;;;;;;1.42;0.95;;;11.80;99.90;;;;;;7296939;32;20104;-61
2023/01/07 14:24:59;;;;;;;2.50;1.10;;;11.90;99.90;;;;;;7295278;32;20099;-64
2023/01/07 14:29:40;;;;;;;2.10;0.90;;;11.80;99.90;;;;;;7297502;32;20142;-62
2023/01/07 14:33:49;;;;;;;1.70;1.05;;;11.60;99.90;;;;;;7301796;32;20100;-62
2023/01/07 14:37:51;;;;;;;1.77;0.90;;;11.50;99.90;;;;;;7294064;32;20122;-62
2023/01/07 14:42:37;;;;;;;1.55;1.00;;;11.40;99.90;;;;;;7296599;32;20222;-62
2023/01/07 14:46:43;;;;;;;1.73;1.00;;;11.10;99.90;;;;;;7203190;32;20171;-63
2023/01/07 14:50:48;;;;;;;2.12;1.08;;;11.00;99.90;;;;;;7297591;32;20508;-62
2023/01/07 14:55:01;;;;;;;1.27;1.00;;;11.10;99.90;;;;;;7289847;32;20107;-63
2023/01/07 14:59:18;;;;;;;1.08;0.88;;;10.80;99.90;;;;;;7296262;32;20203;-62
2023/01/07 15:03:51;;;;;;;2.63;1.20;;;10.80;99.90;;;;;;7293266;32;20103;-63
2023/01/07 15:15:59;;;;;;;2.28;1.30;;;10.70;99.90;;;;;;7294483;32;20483;-63
2023/01/07 15:16:50;;;;;;;1.98;1.37;;;10.60;99.90;;;;;;7298825;32;20118;-62
2023/01/07 15:21:30;;;;;;;2.37;1.20;;;10.50;99.90;;;;;;7294410;32;20289;-63
2023/01/07 15:25:41;;;;;;;1.42;1.10;;;10.50;99.90;;;;;;7292579;32;20208;-62
2023/01/07 15:29:55;;;;;;;1.73;1.20;;;10.40;99.90;;;;;;7290163;32;20206;-62
2023/01/07 15:34:14;;;;;;;2.33;1.27;;;10.30;99.90;;;;;;7287561;32;20093;-63
2023/01/07 15:38:27;;;;;;;2.05;1.10;;;10.30;99.90;;;;;;7288452;32;20211;-63
2023/01/07 15:42:28;;;;;;;2.10;1.35;;;10.20;99.90;;;;;;7298430;32;20104;-62
2023/01/07 15:46:31;;;;;;;1.27;1.10;;;10.10;99.90;;;;;;7300151;32;20450;-63
2023/01/07 15:50:36;;;;;;;1.98;1.30;;;10.10;99.90;;;;;;7295244;32;20194;-64
2023/01/07 15:54:38;;;;;;;4.28;1.50;;;10.00;99.90;;;;;;7297120;32;20211;-62
2023/01/07 15:58:43;;;;;;;1.48;1.10;;;9.90;99.90;;;;;;7297085;32;20150;-61
2023/01/07 16:02:45;;;;;;;3.15;1.30;;;9.90;99.90;;;;;;7295283;32;20122;-62
2023/01/07 16:06:47;;;;;;;1.58;1.12;;;9.80;99.90;;;;;;7299390;32;20233;-61
2023/01/07 16:11:07;;;;;;;1.92;1.40;;;9.80;99.90;;;;;;7297666;32;20121;-61
2023/01/07 16:15:20;;;;;;;2.30;1.42;;;9.80;99.90;;;;;;7275816;32;20174;-59
2023/01/07 16:19:21;;;;;;;2.42;1.50;;;9.70;99.90;;;;;;7292227;32;20309;-59
2023/01/07 16:23:25;;;;;;;1.85;1.42;;;9.70;99.90;;;;;;7293273;32;20162;-61
2023/01/07 16:27:29;;;;;;;2.45;1.50;;;9.60;99.90;;;;;;7294544;32;20213;-60
2023/01/07 16:31:33;;;;;;;4.28;1.50;;;9.60;99.90;;;;;;7293751;32;20236;-60
2023/01/07 16:35:37;;;;;;;4.70;1.62;;;9.50;99.90;;;;;;7291740;32;20920;-60
2023/01/07 16:39:46;;;;;;;3.12;1.90;;;9.60;99.90;;;;;;7292634;32;20123;-60
2023/01/07 16:43:51;;;;;;;4.30;1.62;;;9.50;99.90;;;;;;7290747;32;20226;-61
2023/01/07 16:48:14;;;;;;;3.10;1.60;;;9.50;99.90;;;;;;7278697;32;20103;-60
2023/01/07 16:52:43;;;;;;;3.70;1.80;;;9.40;99.90;;;;;;7289184;32;20751;-60
2023/01/07 16:56:56;;;;;;;2.95;1.83;;;9.40;99.90;;;;;;7285249;32;20136;-60
2023/01/07 17:01:00;;;;;;;2.90;1.85;;;9.50;99.90;;;;;;7288567;32;20199;-62
2023/01/07 17:05:26;;;;;;;4.37;2.00;;;9.50;99.90;;;;;;7270182;32;20568;-60
2023/01/07 17:09:34;;;;;;;2.53;1.92;;;9.50;99.90;;;;;;7287543;32;20215;-62
2023/01/07 17:13:38;;;;;;;3.25;1.80;;;9.50;99.90;;;;;;7287126;32;20321;-60
2023/01/07 17:17:39;;;;;;;2.25;1.67;;;9.50;99.90;;;;;;7291629;32;20521;-60
2023/01/07 17:21:42;;;;;;;2.78;1.65;;;9.50;99.90;;;;;;7289078;32;20463;-60
2023/01/07 17:25:44;;;;;;;4.28;2.37;;;9.50;99.90;;;;;;7291159;32;20210;-60
2023/01/07 17:29:46;;;;;;;2.42;1.70;;;9.40;99.90;;;;;;7289601;32;20097;-60
2023/01/07 17:33:49;;;;;;;2.97;1.75;;;9.40;99.90;;;;;;7288986;32;20195;-60
2023/01/07 17:37:52;;;;;;;3.42;1.92;;;9.50;99.90;;;;;;7288067;32;20112;-60
2023/01/07 17:46:14;;;;;;;2.83;1.70;;;9.50;99.90;;;;;;7287826;32;20256;-61
2023/01/07 17:50:17;;;;;;;2.22;1.62;;;9.40;99.90;;;;;;7288522;32;20116;-60
2023/01/07 17:54:22;;;;;;;5.15;2.03;;;9.50;99.90;;;;;;7292154;32;20310;-60
2023/01/07 17:58:30;;;;;;;6.97;3.85;;;9.60;99.90;;;;;;7289394;32;22659;-60
2023/01/07 18:02:32;;;;;;;3.53;1.83;;;9.60;99.90;;;;;;7275708;32;20100;-61
2023/01/07 18:06:35;;;;;;;4.10;2.00;;;9.60;99.90;;;;;;7294571;32;20211;-61
2023/01/07 18:15:00;;;;;;;6.03;2.30;;;9.60;99.90;;;;;;7293386;32;20139;-62
2023/01/07 18:19:01;;;;;;;4.55;2.30;;;9.60;99.90;;;;;;7290699;32;20170;-61
2023/01/07 18:23:03;;;;;;;3.25;2.20;;;9.70;99.90;;;;;;7290056;32;20250;-61
2023/01/07 18:27:05;;;;;;;3.60;2.25;;;9.70;99.90;;;;;;7290662;32;20246;-61
2023/01/07 18:31:07;;;;;;;4.20;2.22;;;9.60;99.90;;;;;;7281914;32;20146;-61
2023/01/07 18:35:09;;;;;;;2.95;2.00;;;9.60;99.90;;;;;;7281765;32;20123;-59
2023/01/07 18:39:16;;;;;;;3.40;1.95;;;9.70;99.90;;;;;;7293915;32;20234;-59
2023/01/07 18:43:20;;;;;;;3.67;2.08;;;9.90;99.90;;;;;;7295273;32;20487;-61
2023/01/07 18:47:22;;;;;;;3.53;2.30;;;9.90;99.90;;;;;;7295262;32;20179;-61
2023/01/07 18:51:24;;;;;;;3.67;2.67;;;9.80;99.90;;;;;;7292791;32;20142;-60
2023/01/07 18:55:26;;;;;;;3.15;2.40;;;9.70;99.90;;;;;;7290888;32;20175;-60
2023/01/07 18:59:28;;;;;;;3.65;2.30;;;9.70;99.90;;;;;;7293162;32;20136;-61
2023/01/07 19:03:30;;;;;;;3.45;1.80;;;9.70;99.90;;;;;;7296690;32;20130;-60
2023/01/07 19:07:32;;;;;;;2.75;2.12;;;9.70;99.90;;;;;;7296577;32;20462;-60
2023/01/07 19:11:33;;;;;;;4.20;2.20;;;9.70;99.90;;;;;;7295554;32;20116;-60
2023/01/07 19:15:37;;;;;;;4.50;2.35;;;9.90;99.90;;;;;;7295143;32;20214;-61
2023/01/07 19:19:38;;;;;;;4.22;1.98;;;9.90;99.90;;;;;;7296006;32;20325;-60
2023/01/07 19:23:49;;;;;;;4.85;2.30;;;9.90;99.90;;;;;;7298944;32;20127;-60
2023/01/07 19:27:51;;;;;;;2.50;1.90;;;9.90;99.90;;;;;;7297945;32;20242;-60
2023/01/07 19:31:53;;;;;;;3.67;2.15;;;9.90;99.90;;;;;;7295668;32;20127;-60
2023/01/07 19:36:08;;;;;;;5.03;2.30;;;9.90;99.90;;;;;;7299567;32;20154;-60
2023/01/07 19:40:11;;;;;;;3.47;2.30;;;9.90;99.90;;;;;;7296498;32;20243;-61
2023/01/07 19:44:13;;;;;;;3.60;2.22;;;9.90;99.90;;;;;;7280991;32;20302;-59
2023/01/07 19:48:15;;;;;;;3.97;2.08;;;9.90;99.90;;;;;;7296486;32;20132;-59
2023/01/07 19:52:16;;;;;;;3.30;2.12;;;10.00;99.90;;;;;;7294917;32;20154;-59
2023/01/07 19:56:18;;;;;;;5.10;2.60;;;10.00;99.90;;;;;;7298506;32;20104;-59
2023/01/07 20:00:20;;;;;;;3.53;2.30;;;10.10;99.90;;;;;;7291581;32;20172;-60
2023/01/07 20:04:21;;;;;;;4.37;2.40;;;10.20;99.90;;;;;;7298404;32;20634;-61
2023/01/07 20:08:23;;;;;;;3.85;2.20;;;10.20;99.90;;;;;;7292733;32;20096;-59
2023/01/07 20:12:25;;;;;;;3.28;2.30;;;10.20;99.90;;;;;;7291108;32;20147;-58
2023/01/07 20:16:27;;;;;;;3.53;2.10;;;10.30;99.90;;;;;;7296110;32;20212;-60
2023/01/07 20:20:29;;;;;;;3.28;2.15;;;10.10;99.90;;;;;;7297372;32;20183;-60
2023/01/07 20:24:31;;;;;;;3.78;2.33;;;10.20;99.90;;;;;;7290929;32;20125;-60
2023/01/07 20:28:34;;;;;;;7.40;2.40;;;10.20;99.90;;;;;;7295709;32;20208;-60
2023/01/07 20:32:35;;;;;;;3.37;1.90;;;10.20;99.90;;;;;;7295678;32;20220;-60
2023/01/07 20:36:37;;;;;;;3.60;2.35;;;10.10;99.90;;;;;;7297286;32;20100;-60
2023/01/07 20:40:42;;;;;;;3.80;2.60;;;10.10;99.90;;;;;;7293090;32;20104;-62
2023/01/07 20:44:45;;;;;;;5.75;2.72;;;9.90;99.90;;;;;;7294584;32;20116;-60
2023/01/07 20:48:47;;;;;;;2.80;2.47;;;9.70;99.90;;;;;;7294632;32;20114;-60
2023/01/07 20:52:49;;;;;;;5.00;2.87;;;9.50;99.90;;;;;;7294724;32;20165;-60
2023/01/07 20:56:51;;;;;;;4.43;2.42;;;9.40;99.90;;;;;;7290173;32;20684;-60
2023/01/07 21:00:52;;;;;;;3.37;2.30;;;9.30;99.90;;;;;;7295192;32;20128;-60
2023/01/07 21:04:54;;;;;;;3.65;2.58;;;9.20;99.90;;;;;;7294581;32;20108;-60
2023/01/07 21:08:56;;;;;;;3.90;2.25;;;9.20;99.90;;;;;;7290219;32;20537;-61
2023/01/07 21:12:58;;;;;;;2.83;2.12;;;9.10;99.90;;;;;;7292470;32;20112;-61
2023/01/07 21:16:59;;;;;;;3.58;2.17;;;9.20;99.90;;;;;;7291816;32;20145;-60
2023/01/07 21:21:11;;;;;;;3.12;2.05;;;9.20;99.90;;;;;;7286712;32;20104;-60
2023/01/07 21:25:14;;;;;;;4.65;2.17;;;9.20;99.90;;;;;;7293858;32;20103;-61
2023/01/07 21:29:16;;;;;;;2.87;1.90;;;9.30;99.90;;;;;;7295321;32;20112;-61
2023/01/07 21:33:18;;;;;;;2.85;1.95;;;9.30;99.90;;;;;;7293997;32;20104;-62
2023/01/07 21:37:19;;;;;;;2.97;1.87;;;9.30;99.90;;;;;;7295848;32;20122;-61
2023/01/07 21:41:22;;;;;;;2.53;1.80;;;9.40;99.90;;;;;;7293969;32;20159;-61
2023/01/07 21:45:24;;;;;;;5.78;2.00;;;9.30;99.90;;;;;;7293438;32;20175;-61
2023/01/07 21:49:26;;;;;;;3.55;1.55;;;9.30;99.90;;;;;;7292432;32;20281;-61
2023/01/07 21:53:29;;;;;;;3.33;2.03;;;9.40;99.90;;;;;;7286163;32;20142;-61
2023/01/07 21:57:33;;;;;;;2.80;2.28;;;9.40;99.90;;;;;;7294742;32;20108;-61
2023/01/07 22:01:35;;;;;;;2.55;1.75;;;9.40;99.90;;;;;;7291465;32;20238;-60